sensor_id;sensor_type;location;lat;lon;timestamp;P1;durP1;ratioP1;P2;durP2;ratioP2
19883;SDS011;10104;50.732;10.174;2023-03-01T00:01:51;19.70;;;12.53;;
19883;SDS011;10104;50.732;10.174;2023-03-01T00:04:13;20.50;;;12.50;;
19883;SDS011;10104;50.732;10.174;2023-03-01T00:06:34;24.63;;;12.27;;
19883;SDS011;10104;50.732;10.174;2023-03-01T00:08:56;21.17;;;12.60;;
19883;SDS011;10104;50.732;10.174;2023-03-01T00:13:43;23.20;;;14.17;;
19883;SDS011;10104;50.732;10.174;2023-03-01T00:16:08;24.20;;;14.97;;
19883;SDS011;10104;50.732;10.174;2023-03-01T00:18:32;23.23;;;14.43;;
19883;SDS011;10104;50.732;10.174;2023-03-01T00:20:54;24.33;;;13.83;;
19883;SDS011;10104;50.732;10.174;2023-03-01T00:23:16;23.23;;;13.67;;
19883;SDS011;10104;50.732;10.174;2023-03-01T00:25:42;18.87;;;12.47;;
19883;SDS011;10104;50.732;10.174;2023-03-01T00:28:03;19.47;;;13.00;;
19883;SDS011;10104;50.732;10.174;2023-03-01T00:30:25;21.37;;;12.87;;
19883;SDS011;10104;50.732;10.174;2023-03-01T00:32:46;20.50;;;13.10;;
19883;SDS011;10104;50.732;10.174;2023-03-01T00:35:08;26.57;;;14.13;;
19883;SDS011;10104;50.732;10.174;2023-03-01T00:37:29;21.70;;;12.93;;
19883;SDS011;10104;50.732;10.174;2023-03-01T00:39:51;23.63;;;14.77;;
19883;SDS011;10104;50.732;10.174;2023-03-01T00:42:12;24.60;;;14.93;;
19883;SDS011;10104;50.732;10.174;2023-03-01T00:44:34;26.40;;;14.87;;
19883;SDS011;10104;50.732;10.174;2023-03-01T00:46:55;24.97;;;14.90;;
19883;SDS011;10104;50.732;10.174;2023-03-01T00:49:17;28.87;;;16.17;;
19883;SDS011;10104;50.732;10.174;2023-03-01T00:51:38;25.87;;;15.73;;
19883;SDS011;10104;50.732;10.174;2023-03-01T00:54:02;26.87;;;15.73;;
19883;SDS011;10104;50.732;10.174;2023-03-01T00:56:24;23.93;;;14.53;;
19883;SDS011;10104;50.732;10.174;2023-03-01T00:58:46;25.57;;;14.50;;
19883;SDS011;10104;50.732;10.174;2023-03-01T01:01:15;22.80;;;13.90;;
19883;SDS011;10104;50.732;10.174;2023-03-01T01:03:38;24.77;;;13.80;;
19883;SDS011;10104;50.732;10.174;2023-03-01T01:06:00;21.70;;;14.33;;
19883;SDS011;10104;50.732;10.174;2023-03-01T01:08:30;27.10;;;14.87;;
19883;SDS011;10104;50.732;10.174;2023-03-01T01:10:52;53.40;;;26.90;;
19883;SDS011;10104;50.732;10.174;2023-03-01T01:13:13;92.87;;;51.17;;
19883;SDS011;10104;50.732;10.174;2023-03-01T01:15:35;62.23;;;37.03;;
19883;SDS011;10104;50.732;10.174;2023-03-01T01:17:57;40.53;;;23.07;;
19883;SDS011;10104;50.732;10.174;2023-03-01T01:20:18;54.30;;;30.43;;
19883;SDS011;10104;50.732;10.174;2023-03-01T01:22:40;30.23;;;17.67;;
19883;SDS011;10104;50.732;10.174;2023-03-01T01:25:01;26.93;;;14.93;;
19883;SDS011;10104;50.732;10.174;2023-03-01T01:27:23;27.73;;;16.00;;
19883;SDS011;10104;50.732;10.174;2023-03-01T01:29:44;29.70;;;16.10;;
19883;SDS011;10104;50.732;10.174;2023-03-01T01:32:06;25.27;;;15.33;;
19883;SDS011;10104;50.732;10.174;2023-03-01T01:34:27;24.67;;;15.03;;
19883;SDS011;10104;50.732;10.174;2023-03-01T01:36:52;28.07;;;16.30;;
19883;SDS011;10104;50.732;10.174;2023-03-01T01:39:15;27.20;;;14.97;;
19883;SDS011;10104;50.732;10.174;2023-03-01T01:41:37;22.37;;;13.93;;
19883;SDS011;10104;50.732;10.174;2023-03-01T01:46:53;22.30;;;13.87;;
19883;SDS011;10104;50.732;10.174;2023-03-01T01:51:48;23.40;;;14.20;;
19883;SDS011;10104;50.732;10.174;2023-03-01T01:54:15;25.03;;;14.30;;
19883;SDS011;10104;50.732;10.174;2023-03-01T01:56:43;24.60;;;14.37;;
19883;SDS011;10104;50.732;10.174;2023-03-01T01:59:09;28.53;;;14.67;;
19883;SDS011;10104;50.732;10.174;2023-03-01T02:01:31;24.30;;;15.00;;
19883;SDS011;10104;50.732;10.174;2023-03-01T02:03:53;24.73;;;14.43;;
19883;SDS011;10104;50.732;10.174;2023-03-01T02:08:50;26.27;;;15.40;;
19883;SDS011;10104;50.732;10.174;2023-03-01T02:11:13;25.63;;;15.07;;
19883;SDS011;10104;50.732;10.174;2023-03-01T02:13:36;24.77;;;15.33;;
19883;SDS011;10104;50.732;10.174;2023-03-01T02:15:58;21.87;;;14.00;;
19883;SDS011;10104;50.732;10.174;2023-03-01T02:18:20;22.50;;;14.67;;
19883;SDS011;10104;50.732;10.174;2023-03-01T02:20:44;25.13;;;15.93;;
19883;SDS011;10104;50.732;10.174;2023-03-01T02:23:17;25.60;;;15.03;;
19883;SDS011;10104;50.732;10.174;2023-03-01T02:30:39;28.30;;;15.47;;
19883;SDS011;10104;50.732;10.174;2023-03-01T02:33:21;25.57;;;15.90;;
19883;SDS011;10104;50.732;10.174;2023-03-01T02:35:43;26.27;;;15.13;;
19883;SDS011;10104;50.732;10.174;2023-03-01T02:38:06;27.30;;;16.63;;
19883;SDS011;10104;50.732;10.174;2023-03-01T02:40:29;26.57;;;16.17;;
19883;SDS011;10104;50.732;10.174;2023-03-01T02:42:53;25.40;;;14.53;;
19883;SDS011;10104;50.732;10.174;2023-03-01T02:45:16;24.33;;;14.53;;
19883;SDS011;10104;50.732;10.174;2023-03-01T02:47:38;24.27;;;14.77;;
19883;SDS011;10104;50.732;10.174;2023-03-01T02:49:59;23.60;;;14.97;;
19883;SDS011;10104;50.732;10.174;2023-03-01T02:55:14;24.23;;;14.10;;
19883;SDS011;10104;50.732;10.174;2023-03-01T02:57:38;27.13;;;15.43;;
19883;SDS011;10104;50.732;10.174;2023-03-01T03:00:09;25.67;;;14.77;;
19883;SDS011;10104;50.732;10.174;2023-03-01T03:02:40;23.90;;;14.50;;
19883;SDS011;10104;50.732;10.174;2023-03-01T03:05:23;21.37;;;13.97;;
19883;SDS011;10104;50.732;10.174;2023-03-01T03:07:45;23.30;;;13.93;;
19883;SDS011;10104;50.732;10.174;2023-03-01T03:10:10;22.27;;;14.43;;
19883;SDS011;10104;50.732;10.174;2023-03-01T03:12:34;23.97;;;13.87;;
19883;SDS011;10104;50.732;10.174;2023-03-01T03:14:55;23.13;;;13.77;;
19883;SDS011;10104;50.732;10.174;2023-03-01T03:17:17;23.43;;;14.07;;
19883;SDS011;10104;50.732;10.174;2023-03-01T03:19:38;20.90;;;13.43;;
19883;SDS011;10104;50.732;10.174;2023-03-01T03:22:00;22.10;;;14.23;;
19883;SDS011;10104;50.732;10.174;2023-03-01T03:24:22;24.80;;;15.00;;
19883;SDS011;10104;50.732;10.174;2023-03-01T03:26:44;22.30;;;13.97;;
19883;SDS011;10104;50.732;10.174;2023-03-01T03:29:05;22.63;;;13.97;;
19883;SDS011;10104;50.732;10.174;2023-03-01T03:31:27;28.80;;;15.23;;
19883;SDS011;10104;50.732;10.174;2023-03-01T03:33:49;20.70;;;13.47;;
19883;SDS011;10104;50.732;10.174;2023-03-01T03:36:14;23.47;;;14.53;;
19883;SDS011;10104;50.732;10.174;2023-03-01T03:38:40;22.60;;;13.33;;
19883;SDS011;10104;50.732;10.174;2023-03-01T03:41:02;23.90;;;14.37;;
19883;SDS011;10104;50.732;10.174;2023-03-01T03:43:26;21.53;;;13.70;;
19883;SDS011;10104;50.732;10.174;2023-03-01T03:45:49;21.37;;;13.80;;
19883;SDS011;10104;50.732;10.174;2023-03-01T03:48:12;24.00;;;14.10;;
19883;SDS011;10104;50.732;10.174;2023-03-01T03:50:34;18.53;;;13.30;;
19883;SDS011;10104;50.732;10.174;2023-03-01T03:52:55;21.73;;;13.47;;
19883;SDS011;10104;50.732;10.174;2023-03-01T03:55:17;23.10;;;14.47;;
19883;SDS011;10104;50.732;10.174;2023-03-01T03:57:40;21.93;;;13.33;;
19883;SDS011;10104;50.732;10.174;2023-03-01T04:00:02;20.83;;;13.90;;
19883;SDS011;10104;50.732;10.174;2023-03-01T04:02:33;21.83;;;13.60;;
19883;SDS011;10104;50.732;10.174;2023-03-01T04:04:55;26.67;;;14.03;;
19883;SDS011;10104;50.732;10.174;2023-03-01T04:07:16;22.00;;;13.53;;
19883;SDS011;10104;50.732;10.174;2023-03-01T04:09:38;19.80;;;13.47;;
19883;SDS011;10104;50.732;10.174;2023-03-01T04:11:59;19.37;;;12.83;;
19883;SDS011;10104;50.732;10.174;2023-03-01T04:14:21;23.20;;;13.60;;
19883;SDS011;10104;50.732;10.174;2023-03-01T04:16:42;24.20;;;14.30;;
19883;SDS011;10104;50.732;10.174;2023-03-01T04:19:04;25.47;;;14.10;;
19883;SDS011;10104;50.732;10.174;2023-03-01T04:21:27;22.63;;;13.60;;
19883;SDS011;10104;50.732;10.174;2023-03-01T04:23:49;22.73;;;14.00;;
19883;SDS011;10104;50.732;10.174;2023-03-01T04:26:13;21.73;;;13.53;;
19883;SDS011;10104;50.732;10.174;2023-03-01T04:28:36;21.63;;;13.33;;
19883;SDS011;10104;50.732;10.174;2023-03-01T04:31:05;22.87;;;14.67;;
19883;SDS011;10104;50.732;10.174;2023-03-01T04:33:34;24.63;;;14.70;;
19883;SDS011;10104;50.732;10.174;2023-03-01T04:35:56;23.17;;;14.97;;
19883;SDS011;10104;50.732;10.174;2023-03-01T04:38:19;22.63;;;14.10;;
19883;SDS011;10104;50.732;10.174;2023-03-01T04:40:42;23.53;;;13.37;;
19883;SDS011;10104;50.732;10.174;2023-03-01T04:43:04;23.73;;;13.73;;
19883;SDS011;10104;50.732;10.174;2023-03-01T04:45:25;20.70;;;13.13;;
19883;SDS011;10104;50.732;10.174;2023-03-01T04:47:48;23.17;;;13.87;;
19883;SDS011;10104;50.732;10.174;2023-03-01T04:50:10;23.40;;;14.17;;
19883;SDS011;10104;50.732;10.174;2023-03-01T04:52:33;25.00;;;14.63;;
19883;SDS011;10104;50.732;10.174;2023-03-01T04:54:55;28.17;;;15.97;;
19883;SDS011;10104;50.732;10.174;2023-03-01T04:57:16;26.03;;;15.87;;
19883;SDS011;10104;50.732;10.174;2023-03-01T04:59:38;24.47;;;15.07;;
19883;SDS011;10104;50.732;10.174;2023-03-01T05:02:00;22.17;;;13.93;;
19883;SDS011;10104;50.732;10.174;2023-03-01T05:04:22;19.17;;;13.10;;
19883;SDS011;10104;50.732;10.174;2023-03-01T05:06:44;21.87;;;13.67;;
19883;SDS011;10104;50.732;10.174;2023-03-01T05:09:06;23.17;;;13.43;;
19883;SDS011;10104;50.732;10.174;2023-03-01T05:11:27;22.43;;;13.10;;
19883;SDS011;10104;50.732;10.174;2023-03-01T05:13:56;24.27;;;14.13;;
19883;SDS011;10104;50.732;10.174;2023-03-01T05:16:17;27.67;;;14.87;;
19883;SDS011;10104;50.732;10.174;2023-03-01T05:18:40;23.13;;;13.87;;
19883;SDS011;10104;50.732;10.174;2023-03-01T05:21:06;29.40;;;15.47;;
19883;SDS011;10104;50.732;10.174;2023-03-01T05:23:30;33.20;;;18.43;;
19883;SDS011;10104;50.732;10.174;2023-03-01T05:25:52;36.03;;;20.30;;
19883;SDS011;10104;50.732;10.174;2023-03-01T05:28:14;22.53;;;13.67;;
19883;SDS011;10104;50.732;10.174;2023-03-01T05:30:36;24.00;;;15.00;;
19883;SDS011;10104;50.732;10.174;2023-03-01T05:33:00;21.47;;;13.30;;
19883;SDS011;10104;50.732;10.174;2023-03-01T05:35:21;25.77;;;16.03;;
19883;SDS011;10104;50.732;10.174;2023-03-01T05:37:45;28.17;;;16.70;;
19883;SDS011;10104;50.732;10.174;2023-03-01T05:40:09;35.03;;;22.43;;
19883;SDS011;10104;50.732;10.174;2023-03-01T05:42:36;41.73;;;26.00;;
19883;SDS011;10104;50.732;10.174;2023-03-01T05:44:58;64.50;;;34.93;;
19883;SDS011;10104;50.732;10.174;2023-03-01T05:47:19;47.67;;;28.37;;
19883;SDS011;10104;50.732;10.174;2023-03-01T05:49:42;39.57;;;24.07;;
19883;SDS011;10104;50.732;10.174;2023-03-01T05:52:03;30.50;;;17.53;;
19883;SDS011;10104;50.732;10.174;2023-03-01T05:54:25;44.43;;;25.30;;
19883;SDS011;10104;50.732;10.174;2023-03-01T05:56:47;35.70;;;21.07;;
19883;SDS011;10104;50.732;10.174;2023-03-01T05:59:08;37.47;;;20.70;;
19883;SDS011;10104;50.732;10.174;2023-03-01T06:01:30;35.87;;;21.00;;
19883;SDS011;10104;50.732;10.174;2023-03-01T06:03:55;28.97;;;17.77;;
19883;SDS011;10104;50.732;10.174;2023-03-01T06:06:17;38.30;;;20.33;;
19883;SDS011;10104;50.732;10.174;2023-03-01T06:08:39;39.50;;;24.13;;
19883;SDS011;10104;50.732;10.174;2023-03-01T06:11:00;39.70;;;24.83;;
19883;SDS011;10104;50.732;10.174;2023-03-01T06:13:22;60.27;;;31.57;;
19883;SDS011;10104;50.732;10.174;2023-03-01T06:15:44;31.87;;;18.20;;
19883;SDS011;10104;50.732;10.174;2023-03-01T06:18:06;27.67;;;16.07;;
19883;SDS011;10104;50.732;10.174;2023-03-01T06:20:28;28.60;;;17.43;;
19883;SDS011;10104;50.732;10.174;2023-03-01T06:22:50;27.67;;;16.33;;
19883;SDS011;10104;50.732;10.174;2023-03-01T06:25:12;23.43;;;14.63;;
19883;SDS011;10104;50.732;10.174;2023-03-01T06:27:35;26.97;;;15.47;;
19883;SDS011;10104;50.732;10.174;2023-03-01T06:29:57;24.70;;;14.37;;
19883;SDS011;10104;50.732;10.174;2023-03-01T06:32:18;25.20;;;15.27;;
19883;SDS011;10104;50.732;10.174;2023-03-01T06:34:40;23.60;;;14.00;;
19883;SDS011;10104;50.732;10.174;2023-03-01T06:37:01;25.23;;;14.10;;
19883;SDS011;10104;50.732;10.174;2023-03-01T06:39:27;21.90;;;13.80;;
19883;SDS011;10104;50.732;10.174;2023-03-01T06:41:49;24.07;;;14.07;;
19883;SDS011;10104;50.732;10.174;2023-03-01T06:44:10;26.37;;;16.13;;
19883;SDS011;10104;50.732;10.174;2023-03-01T06:46:32;27.73;;;16.20;;
19883;SDS011;10104;50.732;10.174;2023-03-01T06:48:54;21.53;;;14.20;;
19883;SDS011;10104;50.732;10.174;2023-03-01T06:51:15;28.40;;;16.07;;
19883;SDS011;10104;50.732;10.174;2023-03-01T06:53:37;26.47;;;15.13;;
19883;SDS011;10104;50.732;10.174;2023-03-01T06:55:58;26.03;;;15.50;;
19883;SDS011;10104;50.732;10.174;2023-03-01T06:58:21;27.57;;;15.03;;
19883;SDS011;10104;50.732;10.174;2023-03-01T07:00:42;28.90;;;15.50;;
19883;SDS011;10104;50.732;10.174;2023-03-01T07:03:05;27.63;;;16.47;;
19883;SDS011;10104;50.732;10.174;2023-03-01T07:05:27;26.60;;;15.90;;
19883;SDS011;10104;50.732;10.174;2023-03-01T07:07:48;28.00;;;16.77;;
19883;SDS011;10104;50.732;10.174;2023-03-01T07:10:10;28.93;;;17.10;;
19883;SDS011;10104;50.732;10.174;2023-03-01T07:12:32;34.37;;;18.57;;
19883;SDS011;10104;50.732;10.174;2023-03-01T07:14:54;30.97;;;18.77;;
19883;SDS011;10104;50.732;10.174;2023-03-01T07:17:15;34.33;;;19.47;;
19883;SDS011;10104;50.732;10.174;2023-03-01T07:19:37;34.80;;;21.73;;
19883;SDS011;10104;50.732;10.174;2023-03-01T07:21:58;30.63;;;19.70;;
19883;SDS011;10104;50.732;10.174;2023-03-01T07:24:20;34.07;;;20.80;;
19883;SDS011;10104;50.732;10.174;2023-03-01T07:26:41;38.83;;;22.50;;
19883;SDS011;10104;50.732;10.174;2023-03-01T07:29:04;65.20;;;37.40;;
19883;SDS011;10104;50.732;10.174;2023-03-01T07:31:27;60.93;;;32.70;;
19883;SDS011;10104;50.732;10.174;2023-03-01T07:33:51;39.47;;;23.27;;
19883;SDS011;10104;50.732;10.174;2023-03-01T07:36:12;35.33;;;19.87;;
19883;SDS011;10104;50.732;10.174;2023-03-01T07:38:34;34.17;;;19.40;;
19883;SDS011;10104;50.732;10.174;2023-03-01T07:40:59;30.87;;;18.20;;
19883;SDS011;10104;50.732;10.174;2023-03-01T07:43:22;31.03;;;18.30;;
19883;SDS011;10104;50.732;10.174;2023-03-01T07:45:43;31.80;;;19.17;;
19883;SDS011;10104;50.732;10.174;2023-03-01T07:48:05;33.20;;;20.53;;
19883;SDS011;10104;50.732;10.174;2023-03-01T07:50:26;39.07;;;22.30;;
19883;SDS011;10104;50.732;10.174;2023-03-01T07:52:48;50.37;;;28.13;;
19883;SDS011;10104;50.732;10.174;2023-03-01T07:55:10;39.33;;;23.07;;
19883;SDS011;10104;50.732;10.174;2023-03-01T07:57:32;35.27;;;21.47;;
19883;SDS011;10104;50.732;10.174;2023-03-01T07:59:54;34.87;;;20.50;;
19883;SDS011;10104;50.732;10.174;2023-03-01T08:02:15;33.13;;;20.63;;
19883;SDS011;10104;50.732;10.174;2023-03-01T08:04:37;35.87;;;20.57;;
19883;SDS011;10104;50.732;10.174;2023-03-01T08:06:58;37.00;;;22.23;;
19883;SDS011;10104;50.732;10.174;2023-03-01T08:09:20;36.50;;;20.73;;
19883;SDS011;10104;50.732;10.174;2023-03-01T08:11:42;34.00;;;20.77;;
19883;SDS011;10104;50.732;10.174;2023-03-01T08:14:03;32.97;;;20.30;;
19883;SDS011;10104;50.732;10.174;2023-03-01T08:16:25;34.50;;;20.23;;
19883;SDS011;10104;50.732;10.174;2023-03-01T08:18:47;31.43;;;18.67;;
19883;SDS011;10104;50.732;10.174;2023-03-01T08:21:09;30.07;;;19.80;;
19883;SDS011;10104;50.732;10.174;2023-03-01T08:23:33;30.63;;;19.00;;
19883;SDS011;10104;50.732;10.174;2023-03-01T08:26:02;30.10;;;18.53;;
19883;SDS011;10104;50.732;10.174;2023-03-01T08:28:24;27.23;;;17.53;;
19883;SDS011;10104;50.732;10.174;2023-03-01T08:30:46;24.87;;;16.13;;
19883;SDS011;10104;50.732;10.174;2023-03-01T08:33:07;29.47;;;17.03;;
19883;SDS011;10104;50.732;10.174;2023-03-01T08:35:29;24.13;;;15.57;;
19883;SDS011;10104;50.732;10.174;2023-03-01T08:37:50;25.17;;;16.00;;
19883;SDS011;10104;50.732;10.174;2023-03-01T08:40:12;26.67;;;16.63;;
19883;SDS011;10104;50.732;10.174;2023-03-01T08:42:34;30.80;;;17.40;;
19883;SDS011;10104;50.732;10.174;2023-03-01T08:44:56;25.13;;;15.83;;
19883;SDS011;10104;50.732;10.174;2023-03-01T08:47:17;32.13;;;17.50;;
19883;SDS011;10104;50.732;10.174;2023-03-01T08:49:39;39.17;;;19.73;;
19883;SDS011;10104;50.732;10.174;2023-03-01T08:52:01;33.23;;;17.50;;
19883;SDS011;10104;50.732;10.174;2023-03-01T08:54:23;26.43;;;15.43;;
19883;SDS011;10104;50.732;10.174;2023-03-01T08:56:45;25.13;;;13.10;;
19883;SDS011;10104;50.732;10.174;2023-03-01T08:59:08;22.93;;;13.30;;
19883;SDS011;10104;50.732;10.174;2023-03-01T09:01:31;19.23;;;12.20;;
19883;SDS011;10104;50.732;10.174;2023-03-01T09:03:53;18.13;;;10.77;;
19883;SDS011;10104;50.732;10.174;2023-03-01T09:06:14;15.40;;;9.97;;
19883;SDS011;10104;50.732;10.174;2023-03-01T09:08:37;15.43;;;11.13;;
19883;SDS011;10104;50.732;10.174;2023-03-01T09:11:02;15.10;;;10.40;;
19883;SDS011;10104;50.732;10.174;2023-03-01T09:13:24;19.10;;;11.17;;
19883;SDS011;10104;50.732;10.174;2023-03-01T09:15:46;19.40;;;11.57;;
19883;SDS011;10104;50.732;10.174;2023-03-01T09:18:08;16.50;;;11.30;;
19883;SDS011;10104;50.732;10.174;2023-03-01T09:20:30;19.33;;;11.53;;
19883;SDS011;10104;50.732;10.174;2023-03-01T09:22:53;22.77;;;13.53;;
19883;SDS011;10104;50.732;10.174;2023-03-01T09:25:14;31.43;;;16.27;;
19883;SDS011;10104;50.732;10.174;2023-03-01T09:27:36;20.23;;;12.57;;
19883;SDS011;10104;50.732;10.174;2023-03-01T09:29:57;20.10;;;11.90;;
19883;SDS011;10104;50.732;10.174;2023-03-01T09:32:18;19.20;;;12.77;;
19883;SDS011;10104;50.732;10.174;2023-03-01T09:34:40;19.77;;;12.63;;
19883;SDS011;10104;50.732;10.174;2023-03-01T09:37:20;16.73;;;12.20;;
19883;SDS011;10104;50.732;10.174;2023-03-01T09:39:41;21.03;;;13.13;;
19883;SDS011;10104;50.732;10.174;2023-03-01T09:42:03;16.20;;;11.77;;
19883;SDS011;10104;50.732;10.174;2023-03-01T09:47:20;20.07;;;13.13;;
19883;SDS011;10104;50.732;10.174;2023-03-01T09:49:52;18.17;;;12.37;;
19883;SDS011;10104;50.732;10.174;2023-03-01T09:52:42;15.63;;;10.93;;
19883;SDS011;10104;50.732;10.174;2023-03-01T09:55:11;17.07;;;11.63;;
19883;SDS011;10104;50.732;10.174;2023-03-01T10:03:01;18.87;;;10.83;;
19883;SDS011;10104;50.732;10.174;2023-03-01T10:10:32;15.23;;;9.40;;
19883;SDS011;10104;50.732;10.174;2023-03-01T10:12:57;15.13;;;10.03;;
19883;SDS011;10104;50.732;10.174;2023-03-01T10:15:22;17.20;;;9.60;;
19883;SDS011;10104;50.732;10.174;2023-03-01T10:18:00;15.50;;;8.97;;
19883;SDS011;10104;50.732;10.174;2023-03-01T10:23:22;13.73;;;8.97;;
19883;SDS011;10104;50.732;10.174;2023-03-01T10:28:47;15.47;;;10.07;;
19883;SDS011;10104;50.732;10.174;2023-03-01T10:31:19;14.87;;;9.20;;
19883;SDS011;10104;50.732;10.174;2023-03-01T10:33:47;12.13;;;8.67;;
19883;SDS011;10104;50.732;10.174;2023-03-01T10:36:12;15.53;;;9.70;;
19883;SDS011;10104;50.732;10.174;2023-03-01T10:38:53;12.37;;;8.60;;
19883;SDS011;10104;50.732;10.174;2023-03-01T10:41:17;26.67;;;12.57;;
19883;SDS011;10104;50.732;10.174;2023-03-01T10:43:47;22.13;;;11.73;;
19883;SDS011;10104;50.732;10.174;2023-03-01T10:46:31;14.67;;;9.60;;
19883;SDS011;10104;50.732;10.174;2023-03-01T10:51:42;14.73;;;10.00;;
19883;SDS011;10104;50.732;10.174;2023-03-01T10:56:50;12.97;;;9.57;;
19883;SDS011;10104;50.732;10.174;2023-03-01T10:59:31;16.00;;;10.40;;
19883;SDS011;10104;50.732;10.174;2023-03-01T11:02:02;15.73;;;10.60;;
19883;SDS011;10104;50.732;10.174;2023-03-01T11:05:13;18.87;;;10.40;;
19883;SDS011;10104;50.732;10.174;2023-03-01T11:07:46;15.47;;;10.27;;
19883;SDS011;10104;50.732;10.174;2023-03-01T11:10:11;16.67;;;10.57;;
19883;SDS011;10104;50.732;10.174;2023-03-01T11:12:36;15.77;;;10.60;;
19883;SDS011;10104;50.732;10.174;2023-03-01T11:14:58;13.90;;;10.83;;
19883;SDS011;10104;50.732;10.174;2023-03-01T11:17:24;15.37;;;10.70;;
19883;SDS011;10104;50.732;10.174;2023-03-01T11:19:59;15.87;;;11.30;;
19883;SDS011;10104;50.732;10.174;2023-03-01T11:22:25;14.80;;;10.93;;
19883;SDS011;10104;50.732;10.174;2023-03-01T11:24:47;20.43;;;11.20;;
19883;SDS011;10104;50.732;10.174;2023-03-01T11:27:32;15.70;;;9.87;;
19883;SDS011;10104;50.732;10.174;2023-03-01T11:30:02;16.67;;;10.57;;
19883;SDS011;10104;50.732;10.174;2023-03-01T11:32:28;15.20;;;10.73;;
19883;SDS011;10104;50.732;10.174;2023-03-01T11:40:27;16.73;;;11.40;;
19883;SDS011;10104;50.732;10.174;2023-03-01T11:42:57;19.53;;;12.00;;
19883;SDS011;10104;50.732;10.174;2023-03-01T11:45:25;16.47;;;11.70;;
19883;SDS011;10104;50.732;10.174;2023-03-01T11:48:07;16.57;;;10.80;;
19883;SDS011;10104;50.732;10.174;2023-03-01T11:51:09;18.17;;;11.63;;
19883;SDS011;10104;50.732;10.174;2023-03-01T11:53:51;16.80;;;10.83;;
19883;SDS011;10104;50.732;10.174;2023-03-01T11:56:35;16.80;;;10.40;;
19883;SDS011;10104;50.732;10.174;2023-03-01T12:04:36;16.83;;;10.77;;
19883;SDS011;10104;50.732;10.174;2023-03-01T12:07:17;16.50;;;10.50;;
19883;SDS011;10104;50.732;10.174;2023-03-01T12:09:48;15.67;;;10.93;;
19883;SDS011;10104;50.732;10.174;2023-03-01T12:12:42;15.67;;;10.70;;
19883;SDS011;10104;50.732;10.174;2023-03-01T12:17:49;13.27;;;9.90;;
19883;SDS011;10104;50.732;10.174;2023-03-01T12:23:05;14.67;;;10.40;;
19883;SDS011;10104;50.732;10.174;2023-03-01T12:47:14;32.13;;;19.73;;
19883;SDS011;10104;50.732;10.174;2023-03-01T12:49:58;25.40;;;16.07;;
19883;SDS011;10104;50.732;10.174;2023-03-01T12:52:35;20.37;;;13.03;;
19883;SDS011;10104;50.732;10.174;2023-03-01T12:55:07;30.07;;;18.87;;
19883;SDS011;10104;50.732;10.174;2023-03-01T12:57:49;24.07;;;15.47;;
19883;SDS011;10104;50.732;10.174;2023-03-01T13:00:28;25.73;;;15.13;;
19883;SDS011;10104;50.732;10.174;2023-03-01T13:03:02;40.87;;;21.27;;
19883;SDS011;10104;50.732;10.174;2023-03-01T13:08:29;20.53;;;12.70;;
19883;SDS011;10104;50.732;10.174;2023-03-01T13:11:01;22.53;;;13.63;;
19883;SDS011;10104;50.732;10.174;2023-03-01T13:13:26;25.00;;;16.40;;
19883;SDS011;10104;50.732;10.174;2023-03-01T13:15:49;34.07;;;19.77;;
19883;SDS011;10104;50.732;10.174;2023-03-01T13:23:06;19.53;;;13.40;;
19883;SDS011;10104;50.732;10.174;2023-03-01T13:25:31;17.70;;;13.17;;
19883;SDS011;10104;50.732;10.174;2023-03-01T13:30:50;18.67;;;12.47;;
19883;SDS011;10104;50.732;10.174;2023-03-01T13:33:33;25.43;;;12.53;;
19883;SDS011;10104;50.732;10.174;2023-03-01T13:36:01;17.57;;;11.90;;
19883;SDS011;10104;50.732;10.174;2023-03-01T13:38:38;16.90;;;12.87;;
19883;SDS011;10104;50.732;10.174;2023-03-01T13:41:07;17.13;;;12.10;;
19883;SDS011;10104;50.732;10.174;2023-03-01T13:43:30;19.07;;;13.70;;
19883;SDS011;10104;50.732;10.174;2023-03-01T13:45:59;17.27;;;11.17;;
19883;SDS011;10104;50.732;10.174;2023-03-01T13:48:24;18.00;;;12.20;;
19883;SDS011;10104;50.732;10.174;2023-03-01T13:50:50;19.10;;;13.63;;
19883;SDS011;10104;50.732;10.174;2023-03-01T13:53:19;19.90;;;12.73;;
19883;SDS011;10104;50.732;10.174;2023-03-01T13:55:44;20.37;;;13.77;;
19883;SDS011;10104;50.732;10.174;2023-03-01T13:58:16;20.47;;;13.63;;
19883;SDS011;10104;50.732;10.174;2023-03-01T14:00:39;20.00;;;12.87;;
19883;SDS011;10104;50.732;10.174;2023-03-01T14:05:26;20.37;;;15.53;;
19883;SDS011;10104;50.732;10.174;2023-03-01T14:07:50;20.47;;;12.57;;
19883;SDS011;10104;50.732;10.174;2023-03-01T14:10:12;17.47;;;12.17;;
19883;SDS011;10104;50.732;10.174;2023-03-01T14:17:37;17.93;;;12.40;;
19883;SDS011;10104;50.732;10.174;2023-03-01T14:20:23;16.63;;;12.57;;
19883;SDS011;10104;50.732;10.174;2023-03-01T14:22:47;18.23;;;12.97;;
19883;SDS011;10104;50.732;10.174;2023-03-01T14:25:28;17.73;;;13.13;;
19883;SDS011;10104;50.732;10.174;2023-03-01T14:27:56;17.70;;;12.10;;
19883;SDS011;10104;50.732;10.174;2023-03-01T14:30:27;18.03;;;12.33;;
19883;SDS011;10104;50.732;10.174;2023-03-01T14:32:53;17.00;;;11.47;;
19883;SDS011;10104;50.732;10.174;2023-03-01T14:35:26;15.13;;;11.00;;
19883;SDS011;10104;50.732;10.174;2023-03-01T14:37:50;14.03;;;10.97;;
19883;SDS011;10104;50.732;10.174;2023-03-01T14:40:19;18.80;;;12.23;;
19883;SDS011;10104;50.732;10.174;2023-03-01T14:42:46;16.10;;;11.80;;
19883;SDS011;10104;50.732;10.174;2023-03-01T14:45:09;18.57;;;12.03;;
19883;SDS011;10104;50.732;10.174;2023-03-01T14:47:34;18.77;;;12.47;;
19883;SDS011;10104;50.732;10.174;2023-03-01T14:50:00;17.27;;;11.73;;
19883;SDS011;10104;50.732;10.174;2023-03-01T14:52:30;18.10;;;12.13;;
19883;SDS011;10104;50.732;10.174;2023-03-01T14:54:55;19.53;;;12.30;;
19883;SDS011;10104;50.732;10.174;2023-03-01T14:57:19;16.60;;;11.83;;
19883;SDS011;10104;50.732;10.174;2023-03-01T14:59:46;17.50;;;12.00;;
19883;SDS011;10104;50.732;10.174;2023-03-01T15:02:11;18.50;;;12.30;;
19883;SDS011;10104;50.732;10.174;2023-03-01T15:04:38;16.57;;;11.97;;
19883;SDS011;10104;50.732;10.174;2023-03-01T15:07:01;19.03;;;11.27;;
19883;SDS011;10104;50.732;10.174;2023-03-01T15:09:26;17.43;;;11.97;;
19883;SDS011;10104;50.732;10.174;2023-03-01T15:11:48;17.33;;;11.00;;
19883;SDS011;10104;50.732;10.174;2023-03-01T15:17:19;18.73;;;11.37;;
19883;SDS011;10104;50.732;10.174;2023-03-01T15:19:47;15.47;;;11.87;;
19883;SDS011;10104;50.732;10.174;2023-03-01T15:22:13;22.73;;;13.20;;
19883;SDS011;10104;50.732;10.174;2023-03-01T15:24:37;15.50;;;11.60;;
19883;SDS011;10104;50.732;10.174;2023-03-01T15:26:59;17.30;;;11.37;;
19883;SDS011;10104;50.732;10.174;2023-03-01T15:29:28;19.03;;;11.80;;
19883;SDS011;10104;50.732;10.174;2023-03-01T15:31:59;15.53;;;10.70;;
19883;SDS011;10104;50.732;10.174;2023-03-01T15:34:30;17.77;;;13.30;;
19883;SDS011;10104;50.732;10.174;2023-03-01T15:36:59;16.67;;;10.13;;
19883;SDS011;10104;50.732;10.174;2023-03-01T15:39:33;16.03;;;11.73;;